Time;durP1;ratioP1;P1;durP2;ratioP2;P2;SDS_P1;SDS_P2;PMS_P1;PMS_P2;Temp;Humidity;BMP_temperature;BMP_pressure;BME280_temperature;BME280_humidity;BME280_pressure;Samples;Min_cycle;Max_cycle;Signal;HPM_P1;HPM_P2
2023/05/29 00:01:27;;;;;;;12.23;3.17;;;;;;;18.00;42.57;101849.47;5080365;28;20107;-41
2023/05/29 00:03:52;;;;;;;10.13;3.65;;;;;;;17.95;42.69;101852.44;5076688;28;20486;-40
2023/05/29 00:06:19;;;;;;;9.50;3.10;;;;;;;17.91;42.77;101851.81;5078918;28;20595;-40
2023/05/29 00:08:45;;;;;;;8.35;3.15;;;;;;;17.93;42.91;101849.84;5074574;28;20055;-39
2023/05/29 00:11:11;;;;;;;8.30;3.28;;;;;;;17.94;42.82;101853.38;5063786;28;20405;-41
2023/05/29 00:13:36;;;;;;;7.22;3.55;;;;;;;17.94;42.85;101856.88;5079216;28;20031;-39
2023/05/29 00:16:03;;;;;;;6.90;1.98;;;;;;;17.86;43.02;101858.38;5080347;28;20032;-39
2023/05/29 00:18:29;;;;;;;9.23;3.17;;;;;;;17.80;43.08;101862.34;5060189;28;20028;-40
2023/05/29 00:20:54;;;;;;;6.25;2.55;;;;;;;17.76;43.31;101863.53;5076240;28;20035;-41
2023/05/29 00:23:20;;;;;;;7.53;3.10;;;;;;;17.71;43.40;101857.69;5076100;28;20114;-40
2023/05/29 00:25:46;;;;;;;8.98;3.58;;;;;;;17.68;43.46;101862.25;5074866;28;20059;-41
2023/05/29 00:28:12;;;;;;;6.15;3.35;;;;;;;17.69;43.59;101863.13;5080143;28;20028;-39
2023/05/29 00:30:38;;;;;;;13.15;3.45;;;;;;;17.77;43.46;101870.56;5078683;28;20478;-39
2023/05/29 00:33:03;;;;;;;8.93;3.35;;;;;;;17.81;43.46;101864.03;5082796;28;20041;-40
2023/05/29 00:35:29;;;;;;;7.80;3.33;;;;;;;17.82;43.49;101863.94;5078857;28;20034;-39
2023/05/29 00:37:55;;;;;;;7.88;3.28;;;;;;;17.83;43.77;101878.09;5074719;28;20033;-40
2023/05/29 00:40:20;;;;;;;8.57;3.63;;;;;;;17.76;43.95;101876.84;5075370;28;20387;-40
2023/05/29 00:42:46;;;;;;;14.52;4.60;;;;;;;17.71;43.98;101876.31;5076298;28;20027;-40
2023/05/29 00:45:13;;;;;;;14.57;4.03;;;;;;;17.66;44.13;101869.50;5077666;28;20039;-41
2023/05/29 00:47:39;;;;;;;10.02;4.15;;;;;;;17.64;44.32;101873.22;5075289;28;20040;-40
2023/05/29 00:50:06;;;;;;;10.18;3.75;;;;;;;17.60;44.33;101869.94;5073708;28;20024;-40
2023/05/29 00:52:32;;;;;;;7.10;3.50;;;;;;;17.59;44.45;101876.22;5071096;28;20511;-41
2023/05/29 00:55:00;;;;;;;8.65;3.75;;;;;;;17.60;44.45;101875.25;5082457;28;20505;-39
2023/05/29 00:57:26;;;;;;;12.02;3.40;;;;;;;17.52;44.67;101877.59;5075037;28;20028;-39
2023/05/29 00:59:55;;;;;;;7.82;3.50;;;;;;;17.47;44.79;101874.41;5066960;28;20441;-39
2023/05/29 01:02:20;;;;;;;6.28;3.22;;;;;;;17.45;44.87;101879.81;5061312;28;20080;-41
2023/05/29 01:04:46;;;;;;;10.75;3.45;;;;;;;17.41;44.93;101874.81;5070548;28;20035;-40
2023/05/29 01:07:12;;;;;;;11.45;4.32;;;;;;;17.34;45.03;101877.06;5078484;28;20078;-41
2023/05/29 01:09:38;;;;;;;11.05;3.45;;;;;;;17.29;45.13;101881.81;5081816;28;20024;-39
2023/05/29 01:12:15;;;;;;;6.68;1.83;;;;;;;17.24;45.42;101883.97;5072368;28;20029;-39
2023/05/29 01:15:04;;;;;;;9.88;3.40;;;;;;;17.24;45.65;101884.81;5076458;28;20923;-39
2023/05/29 01:17:45;;;;;;;11.65;4.03;;;;;;;17.21;45.59;101885.88;5055833;28;20093;-40
2023/05/29 01:20:31;;;;;;;12.10;4.15;;;;;;;17.18;45.74;101890.53;5074046;28;20035;-42
2023/05/29 01:23:04;;;;;;;6.70;3.60;;;;;;;17.13;45.58;101887.34;5071916;28;20028;-40
2023/05/29 01:26:11;;;;;;;8.90;3.85;;;;;;;17.16;45.96;101887.97;5072020;28;20466;-40
2023/05/29 01:28:47;;;;;;;7.30;3.40;;;;;;;17.15;45.50;101882.78;5072365;28;20032;-40
2023/05/29 01:31:15;;;;;;;11.15;3.40;;;;;;;17.11;45.60;101889.25;5071193;28;20020;-41
2023/05/29 01:33:41;;;;;;;7.97;3.88;;;;;;;17.09;45.58;101897.34;5075702;28;20068;-41
2023/05/29 01:36:11;;;;;;;7.82;3.90;;;;;;;17.08;45.90;101889.44;5070646;28;20071;-39
2023/05/29 01:38:36;;;;;;;8.35;3.53;;;;;;;17.06;45.81;101882.44;5079367;28;20544;-40
2023/05/29 01:41:03;;;;;;;9.82;3.80;;;;;;;17.04;45.84;101889.66;5058506;28;20028;-40
2023/05/29 01:43:29;;;;;;;8.35;3.25;;;;;;;17.02;45.94;101891.56;5073119;28;20024;-40
2023/05/29 01:45:55;;;;;;;8.10;3.28;;;;;;;16.94;46.14;101888.53;5073462;28;20035;-39
2023/05/29 01:48:21;;;;;;;9.73;3.80;;;;;;;16.82;46.40;101890.19;5073918;28;20050;-41
2023/05/29 01:50:48;;;;;;;11.77;3.80;;;;;;;16.72;46.74;101895.25;5058982;28;20051;-39
2023/05/29 01:53:13;;;;;;;8.25;3.92;;;;;;;16.69;46.68;101898.16;5077656;28;20079;-40
2023/05/29 01:55:39;;;;;;;8.32;3.78;;;;;;;16.61;46.99;101892.47;5075921;28;20482;-39
2023/05/29 01:58:06;;;;;;;8.45;3.40;;;;;;;16.62;46.94;101888.84;5075805;28;20462;-39
2023/05/29 02:00:32;;;;;;;8.98;3.45;;;;;;;16.58;47.05;101893.53;5057754;28;20029;-40
2023/05/29 02:02:57;;;;;;;11.63;3.80;;;;;;;16.55;46.96;101892.88;5072772;28;20034;-40
2023/05/29 02:05:22;;;;;;;10.15;3.45;;;;;;;16.50;47.21;101889.66;5077338;28;20044;-39
2023/05/29 02:07:48;;;;;;;10.23;4.47;;;;;;;16.46;47.34;101889.84;5073831;28;20043;-40
2023/05/29 02:10:13;;;;;;;8.43;3.63;;;;;;;16.41;47.45;101891.94;5062840;28;20102;-40
2023/05/29 02:12:40;;;;;;;7.40;3.70;;;;;;;16.42;47.88;101898.13;5073230;28;20080;-40
2023/05/29 02:15:07;;;;;;;10.90;3.70;;;;;;;16.44;47.57;101891.75;5058565;28;20154;-39
2023/05/29 02:17:33;;;;;;;11.80;3.75;;;;;;;16.45;47.64;101888.16;5073060;28;20062;-40
2023/05/29 02:19:59;;;;;;;8.50;4.82;;;;;;;16.50;47.40;101889.66;5074302;28;20047;-40
2023/05/29 02:22:24;;;;;;;8.10;4.40;;;;;;;16.49;47.36;101894.09;5052766;28;20032;-39
2023/05/29 02:24:50;;;;;;;7.20;3.72;;;;;;;16.49;47.38;101891.44;5074612;28;20363;-40
2023/05/29 02:27:15;;;;;;;8.18;3.92;;;;;;;16.50;47.38;101889.66;5068304;28;20023;-39
2023/05/29 02:29:41;;;;;;;9.77;3.47;;;;;;;16.48;47.46;101892.44;5061047;28;20493;-40
2023/05/29 02:32:06;;;;;;;8.77;3.38;;;;;;;16.44;47.42;101902.38;5079046;28;20447;-39
2023/05/29 02:34:32;;;;;;;8.93;3.15;;;;;;;16.40;47.64;101898.25;5080679;28;20395;-40
2023/05/29 02:36:57;;;;;;;12.65;3.75;;;;;;;16.33;47.69;101904.88;5078563;28;20044;-41
2023/05/29 02:39:23;;;;;;;6.63;3.90;;;;;;;16.31;47.61;101890.84;5073352;28;20066;-39
2023/05/29 02:41:48;;;;;;;10.23;3.90;;;;;;;16.34;47.77;101889.78;5064446;28;20042;-39
2023/05/29 02:44:14;;;;;;;9.00;3.60;;;;;;;16.35;47.76;101892.34;5073820;28;20111;-40
2023/05/29 02:46:39;;;;;;;8.48;3.53;;;;;;;16.31;47.86;101885.53;5075798;28;20033;-39
2023/05/29 02:49:06;;;;;;;11.65;4.05;;;;;;;16.24;47.87;101889.53;5064178;28;20081;-39
2023/05/29 02:51:32;;;;;;;8.00;3.78;;;;;;;16.15;48.22;101891.81;5080203;28;20039;-40
2023/05/29 02:53:58;;;;;;;11.20;3.28;;;;;;;16.10;48.26;101885.09;5068083;28;20035;-41
2023/05/29 02:56:23;;;;;;;9.77;3.83;;;;;;;16.09;48.51;101892.22;5079147;28;20031;-39
2023/05/29 02:58:51;;;;;;;9.02;4.15;;;;;;;16.00;48.69;101884.81;5081333;28;20028;-40
2023/05/29 03:01:17;;;;;;;11.15;4.25;;;;;;;15.98;48.57;101884.06;5075024;28;20024;-40
2023/05/29 03:03:43;;;;;;;10.02;3.92;;;;;;;16.01;48.62;101889.19;5074951;28;20032;-40
2023/05/29 03:06:09;;;;;;;9.35;3.90;;;;;;;16.01;48.55;101889.19;5057365;28;20403;-41
2023/05/29 03:08:39;;;;;;;9.68;4.15;;;;;;;16.02;48.64;101888.22;5079250;28;20032;-40
2023/05/29 03:11:10;;;;;;;8.38;3.50;;;;;;;16.06;48.57;101888.88;5057499;28;20032;-41
2023/05/29 03:13:36;;;;;;;8.00;3.80;;;;;;;16.04;48.66;101889.00;5080274;28;20114;-41
2023/05/29 03:16:02;;;;;;;9.95;4.13;;;;;;;16.03;48.65;101887.28;5063681;28;20024;-40
2023/05/29 03:18:28;;;;;;;10.25;4.22;;;;;;;16.05;48.79;101889.81;5076858;28;20043;-40
2023/05/29 03:20:53;;;;;;;9.57;4.20;;;;;;;16.04;48.92;101894.31;5076285;28;20063;-41
2023/05/29 03:23:19;;;;;;;8.80;3.97;;;;;;;16.00;49.01;101896.31;5076981;28;20438;-41
2023/05/29 03:25:45;;;;;;;11.52;4.38;;;;;;;16.03;48.82;101889.09;5077009;28;20040;-43
2023/05/29 03:28:10;;;;;;;13.43;4.10;;;;;;;15.99;49.03;101891.06;5081218;28;20050;-40
2023/05/29 03:30:36;;;;;;;11.50;4.80;;;;;;;16.01;48.88;101886.53;5073492;28;20020;-40
2023/05/29 03:33:03;;;;;;;9.15;4.00;;;;;;;16.04;48.69;101890.78;5083709;28;20055;-41
2023/05/29 03:35:29;;;;;;;8.65;4.10;;;;;;;15.94;49.02;101888.72;5080233;28;20024;-39
2023/05/29 03:37:55;;;;;;;9.82;3.78;;;;;;;15.90;49.10;101886.34;5074390;28;20087;-40
2023/05/29 03:40:21;;;;;;;8.20;4.65;;;;;;;15.87;49.24;101886.53;5065008;28;20498;-42
2023/05/29 03:42:46;;;;;;;9.20;3.95;;;;;;;15.91;49.17;101888.06;5079982;28;20379;-41
2023/05/29 03:45:11;;;;;;;10.80;3.75;;;;;;;15.87;49.28;101890.06;5073469;28;20093;-40
2023/05/29 03:47:37;;;;;;;9.50;3.95;;;;;;;15.87;49.19;101889.19;5076599;28;20383;-41
2023/05/29 03:50:02;;;;;;;9.27;3.80;;;;;;;15.80;49.29;101894.84;5082781;28;20103;-40
2023/05/29 03:52:28;;;;;;;9.93;3.78;;;;;;;15.78;49.44;101890.56;5063141;28;20048;-40
2023/05/29 03:54:53;;;;;;;6.25;3.20;;;;;;;15.81;49.57;101893.88;5078232;28;20123;-40
2023/05/29 03:57:19;;;;;;;9.57;3.50;;;;;;;15.88;49.36;101898.84;5076031;28;20024;-40
2023/05/29 03:59:44;;;;;;;12.23;3.78;;;;;;;15.86;49.34;101896.31;5077123;28;20033;-40
2023/05/29 04:02:10;;;;;;;10.10;3.88;;;;;;;15.83;49.49;101907.06;5082134;28;20387;-40
2023/05/29 04:04:35;;;;;;;7.47;3.58;;;;;;;15.85;49.55;101900.75;5079564;28;20060;-40
2023/05/29 04:07:01;;;;;;;13.77;4.72;;;;;;;15.93;49.50;101902.94;5076425;28;20034;-41
2023/05/29 04:09:26;;;;;;;8.52;4.03;;;;;;;15.98;49.39;101905.28;5077041;28;20118;-41
2023/05/29 04:11:52;;;;;;;9.93;4.35;;;;;;;16.03;49.42;101911.19;5074435;28;20439;-40
2023/05/29 04:14:17;;;;;;;7.97;4.65;;;;;;;16.09;49.24;101902.84;5062953;28;20035;-42
2023/05/29 04:16:43;;;;;;;7.70;3.63;;;;;;;16.10;49.21;101909.84;5075989;28;20387;-40
2023/05/29 04:19:08;;;;;;;9.85;3.85;;;;;;;16.04;49.49;101912.00;5077198;28;20042;-42
2023/05/29 04:21:34;;;;;;;10.98;3.58;;;;;;;15.93;49.83;101918.00;5079384;28;20393;-40
2023/05/29 04:24:00;;;;;;;7.78;3.88;;;;;;;15.78;50.05;101920.63;5072466;28;20599;-41
2023/05/29 04:26:25;;;;;;;7.55;4.10;;;;;;;15.80;50.04;101924.03;5075530;28;20127;-40
2023/05/29 04:28:56;;;;;;;11.02;4.28;;;;;;;15.83;50.33;101923.84;5078316;28;20040;-42
2023/05/29 04:31:25;;;;;;;7.93;4.20;;;;;;;15.90;50.23;101923.50;5078776;28;20470;-39
2023/05/29 04:33:54;;;;;;;10.27;4.10;;;;;;;15.93;50.16;101924.16;5083282;28;20286;-42
2023/05/29 04:36:32;;;;;;;9.55;4.22;;;;;;;15.97;50.52;101922.16;5080514;28;20032;-40
2023/05/29 04:38:58;;;;;;;12.25;4.55;;;;;;;15.97;50.17;101915.06;5074104;28;20032;-42
2023/05/29 04:41:29;;;;;;;10.68;4.28;;;;;;;16.01;50.25;101921.03;5074870;28;20027;-40
2023/05/29 04:43:56;;;;;;;9.77;3.97;;;;;;;16.09;50.29;101916.13;5074617;28;20023;-41
2023/05/29 04:46:22;;;;;;;9.00;3.63;;;;;;;16.12;50.40;101920.38;5077159;28;20130;-40
2023/05/29 04:48:47;;;;;;;8.32;4.07;;;;;;;16.14;50.42;101919.31;5077203;28;20051;-40
2023/05/29 04:51:13;;;;;;;8.43;4.32;;;;;;;16.19;50.34;101920.84;5079129;28;20504;-39
2023/05/29 04:53:42;;;;;;;9.40;3.95;;;;;;;16.19;50.47;101920.84;5074985;28;20187;-44
2023/05/29 04:56:09;;;;;;;8.75;4.20;;;;;;;16.13;50.64;101922.06;5078221;28;20031;-41
2023/05/29 04:58:34;;;;;;;7.55;4.25;;;;;;;16.19;50.65;101920.84;5069257;28;20024;-40
2023/05/29 05:00:59;;;;;;;10.63;4.07;;;;;;;16.24;50.70;101922.25;5057443;28;20032;-40
2023/05/29 05:03:25;;;;;;;8.82;4.10;;;;;;;16.33;50.51;101922.63;5074834;28;20027;-40
2023/05/29 05:05:51;;;;;;;9.68;4.55;;;;;;;16.38;50.65;101920.50;5074323;28;20028;-42
2023/05/29 05:08:17;;;;;;;8.23;4.18;;;;;;;16.36;50.74;101925.94;5055089;28;20044;-42
2023/05/29 05:10:43;;;;;;;7.18;4.05;;;;;;;16.38;50.89;101924.03;5074873;28;20024;-41
2023/05/29 05:13:08;;;;;;;12.40;4.13;;;;;;;16.45;50.66;101925.34;5060537;28;20069;-40
2023/05/29 05:15:34;;;;;;;9.15;4.40;;;;;;;16.54;50.51;101928.38;5074466;28;20382;-40
2023/05/29 05:17:59;;;;;;;8.45;4.28;;;;;;;16.61;50.54;101919.03;5076846;28;21416;-42
2023/05/29 05:20:26;;;;;;;13.02;4.70;;;;;;;16.65;50.67;101925.88;5073328;28;20044;-41
2023/05/29 05:22:51;;;;;;;10.27;4.88;;;;;;;16.61;50.77;101930.53;5070419;28;20036;-40
2023/05/29 05:25:17;;;;;;;9.80;3.95;;;;;;;16.68;50.79;101925.69;5073138;28;20471;-39
2023/05/29 05:27:42;;;;;;;10.07;4.53;;;;;;;16.67;50.95;101929.28;5070621;28;20043;-40
2023/05/29 05:30:08;;;;;;;9.52;4.20;;;;;;;16.72;51.10;101927.16;5056876;28;20090;-39
2023/05/29 05:32:34;;;;;;;11.63;4.57;;;;;;;16.74;51.14;101927.91;5074086;28;20502;-40
2023/05/29 05:35:00;;;;;;;9.73;3.72;;;;;;;16.82;51.29;101926.56;5077631;28;20028;-39
2023/05/29 05:37:25;;;;;;;11.05;4.75;;;;;;;16.86;50.97;101926.28;5049104;28;20046;-43
2023/05/29 05:39:53;;;;;;;8.73;4.30;;;;;;;16.86;51.28;101933.41;5061477;28;20036;-42
2023/05/29 05:42:18;;;;;;;12.48;4.80;;;;;;;16.90;51.13;101929.56;5072654;28;20506;-40
2023/05/29 05:44:44;;;;;;;11.27;5.15;;;;;;;16.91;51.25;101931.28;5076817;28;20115;-40
2023/05/29 05:47:10;;;;;;;7.70;4.28;;;;;;;16.96;50.94;101928.34;5062601;28;20031;-40
2023/05/29 05:49:35;;;;;;;11.80;4.43;;;;;;;17.01;51.10;101923.56;5061609;28;20060;-40
2023/05/29 05:52:00;;;;;;;11.13;5.15;;;;;;;17.06;50.94;101924.13;5075634;28;20035;-39
2023/05/29 05:54:26;;;;;;;10.27;3.63;;;;;;;17.12;51.01;101930.84;5078388;28;20040;-40
2023/05/29 05:56:51;;;;;;;6.63;2.95;;;;;;;17.18;50.58;101930.41;5060687;28;20482;-42
2023/05/29 05:59:17;;;;;;;9.07;4.70;;;;;;;17.19;50.39;101932.13;5065145;28;20102;-40
2023/05/29 06:01:45;;;;;;;15.48;7.43;;;;;;;17.26;50.10;101940.53;5079103;28;20051;-41
2023/05/29 06:04:11;;;;;;;13.52;4.07;;;;;;;17.30;49.88;101939.38;5059665;28;20028;-40
2023/05/29 06:06:36;;;;;;;10.43;4.10;;;;;;;17.34;49.80;101944.41;5082514;28;20034;-42
2023/05/29 06:09:02;;;;;;;10.32;3.38;;;;;;;17.35;49.86;101935.47;5080079;28;20028;-42
2023/05/29 06:11:27;;;;;;;12.05;4.20;;;;;;;17.37;49.86;101944.19;5077704;28;20032;-42
2023/05/29 06:13:53;;;;;;;12.65;4.00;;;;;;;17.41;49.69;101950.16;5078700;28;20153;-40
2023/05/29 06:16:19;;;;;;;6.97;4.07;;;;;;;17.46;49.88;101957.84;5077195;28;20548;-39
2023/05/29 06:18:44;;;;;;;12.02;4.65;;;;;;;17.50;50.00;101954.00;5065226;28;20044;-42
2023/05/29 06:21:13;;;;;;;8.70;4.20;;;;;;;17.52;50.04;101958.28;5081278;28;20056;-40
2023/05/29 06:23:38;;;;;;;10.98;4.43;;;;;;;17.49;50.03;101965.59;5077227;28;20034;-38
2023/05/29 06:26:04;;;;;;;8.45;4.00;;;;;;;17.46;50.31;101957.84;5079194;28;20439;-40
2023/05/29 06:28:30;;;;;;;12.07;5.03;;;;;;;17.48;50.49;101961.22;5080453;28;20031;-39
2023/05/29 06:30:56;;;;;;;9.13;4.55;;;;;;;17.47;50.64;101964.88;5078318;28;20032;-43
2023/05/29 06:33:21;;;;;;;8.10;4.15;;;;;;;17.49;50.90;101957.63;5076713;28;20031;-40
2023/05/29 06:35:47;;;;;;;13.20;5.70;;;;;;;17.53;51.15;101964.44;5076860;28;20390;-41
2023/05/29 06:38:15;;;;;;;9.48;3.42;;;;;;;17.57;51.50;101957.97;5085873;28;20491;-40
2023/05/29 06:40:41;;;;;;;8.35;4.10;;;;;;;17.59;51.40;101960.50;5079590;28;20569;-41
2023/05/29 06:43:06;;;;;;;11.13;4.20;;;;;;;17.63;51.51;101959.34;5078191;28;20035;-40
2023/05/29 06:45:32;;;;;;;6.75;3.65;;;;;;;17.68;51.55;101967.88;5072541;28;20664;-39
2023/05/29 06:47:57;;;;;;;10.85;3.40;;;;;;;17.74;51.57;101972.75;5076234;28;20040;-40
2023/05/29 06:50:23;;;;;;;7.78;3.75;;;;;;;17.78;51.61;101978.72;5081204;28;20025;-41
2023/05/29 06:52:48;;;;;;;6.07;3.70;;;;;;;17.82;51.65;101974.91;5073763;28;20032;-41
2023/05/29 06:55:13;;;;;;;9.88;3.90;;;;;;;17.87;51.47;101967.44;5082772;28;20498;-41
2023/05/29 06:57:39;;;;;;;12.57;6.35;;;;;;;17.89;51.40;101965.53;5060927;28;20032;-39
2023/05/29 07:00:06;;;;;;;5.45;2.97;;;;;;;17.93;51.61;101976.81;5081944;28;20394;-39
2023/05/29 07:02:32;;;;;;;6.22;3.00;;;;;;;17.93;51.51;101967.00;5076410;28;20521;-41
2023/05/29 07:04:57;;;;;;;9.32;3.92;;;;;;;17.95;51.40;101970.41;5058438;28;20036;-39
2023/05/29 07:07:23;;;;;;;5.40;2.70;;;;;;;18.00;51.30;101978.13;5081770;28;20024;-40
2023/05/29 07:09:48;;;;;;;10.52;5.30;;;;;;;18.02;51.44;101975.38;5076335;28;20569;-41
2023/05/29 07:12:13;;;;;;;9.98;4.13;;;;;;;18.05;51.42;101980.47;5045858;28;20040;-40
2023/05/29 07:14:39;;;;;;;11.90;2.60;;;;;;;18.09;50.88;101982.81;5061299;28;20457;-40
2023/05/29 07:17:05;;;;;;;7.20;2.65;;;;;;;18.09;50.87;101982.81;5058890;28;20028;-41
2023/05/29 07:19:32;;;;;;;7.75;2.50;;;;;;;18.11;50.69;101985.34;5078373;28;20047;-40
2023/05/29 07:21:58;;;;;;;9.77;2.72;;;;;;;18.11;50.79;101982.69;5075956;28;20028;-41
2023/05/29 07:24:23;;;;;;;6.65;2.90;;;;;;;18.12;50.77;101981.75;5064627;28;20040;-41
2023/05/29 07:26:49;;;;;;;5.68;2.20;;;;;;;18.12;50.64;101979.94;5077775;28;20036;-40
2023/05/29 07:29:16;;;;;;;11.63;4.43;;;;;;;18.15;50.30;101978.03;5081667;28;20036;-41
2023/05/29 07:31:42;;;;;;;5.40;2.28;;;;;;;18.15;50.56;101980.69;5079944;28;20055;-41
2023/05/29 07:34:07;;;;;;;5.53;2.88;;;;;;;18.15;50.49;101981.53;5076175;28;20052;-41
2023/05/29 07:36:33;;;;;;;4.85;2.25;;;;;;;18.20;50.34;101983.88;5077696;28;20024;-43
2023/05/29 07:38:58;;;;;;;3.83;2.22;;;;;;;18.23;50.20;101981.81;5077023;28;20152;-41
2023/05/29 07:41:25;;;;;;;6.28;1.98;;;;;;;18.30;49.99;101989.41;5075745;28;20040;-40
2023/05/29 07:43:52;;;;;;;6.00;2.58;;;;;;;18.37;49.88;101988.00;5073745;28;20032;-42
2023/05/29 07:46:18;;;;;;;6.45;2.50;;;;;;;18.43;49.89;101984.91;5075888;28;20032;-43
2023/05/29 07:48:43;;;;;;;7.25;2.40;;;;;;;18.46;49.68;101981.16;5079955;28;20039;-41
2023/05/29 07:51:11;;;;;;;5.63;2.17;;;;;;;18.51;49.68;101981.69;5078023;28;20390;-41
2023/05/29 07:53:37;;;;;;;4.60;2.10;;;;;;;18.54;49.32;101982.31;5058130;28;20031;-40
2023/05/29 07:56:02;;;;;;;6.68;2.38;;;;;;;18.58;48.99;101981.13;5054884;28;20040;-41
2023/05/29 07:58:28;;;;;;;6.35;3.08;;;;;;;18.62;48.94;101980.91;5081252;28;20955;-41
2023/05/29 08:00:53;;;;;;;7.05;1.90;;;;;;;18.69;48.77;101982.16;5081387;28;20102;-39
2023/05/29 08:03:19;;;;;;;6.05;2.72;;;;;;;18.76;48.61;101975.44;5078991;28;20035;-41
2023/05/29 08:05:44;;;;;;;10.35;2.33;;;;;;;18.81;48.39;101986.63;5078183;28;20054;-40
2023/05/29 08:08:12;;;;;;;8.40;3.38;;;;;;;18.87;48.42;101990.66;5077629;28;20470;-42
2023/05/29 08:10:38;;;;;;;5.72;2.55;;;;;;;18.93;48.29;101981.34;5055826;28;20135;-42
2023/05/29 08:13:04;;;;;;;5.38;2.05;;;;;;;18.98;47.99;101979.22;5081890;28;20081;-41
2023/05/29 08:15:31;;;;;;;8.00;2.40;;;;;;;19.04;47.56;101986.75;5077888;28;20032;-42
2023/05/29 08:17:56;;;;;;;4.18;2.30;;;;;;;19.10;47.34;101980.97;5078359;28;20500;-41
2023/05/29 08:20:22;;;;;;;4.57;2.20;;;;;;;19.17;47.07;101992.03;5079172;28;20581;-40
2023/05/29 08:22:47;;;;;;;6.18;2.22;;;;;;;19.25;46.96;101991.47;5077458;28;20041;-42
2023/05/29 08:25:13;;;;;;;5.30;2.20;;;;;;;19.30;46.41;101983.94;5075983;28;20115;-41
2023/05/29 08:27:38;;;;;;;5.78;2.17;;;;;;;19.37;46.22;101987.00;5079637;28;20032;-41
2023/05/29 08:30:04;;;;;;;6.28;1.83;;;;;;;19.46;46.16;101979.16;5072969;28;20036;-41
2023/05/29 08:32:29;;;;;;;5.18;2.22;;;;;;;19.53;45.68;101998.22;5058435;28;20098;-40
2023/05/29 08:34:57;;;;;;;3.90;1.60;;;;;;;19.52;45.06;101993.00;5066388;28;20039;-42
2023/05/29 08:37:23;;;;;;;5.45;1.95;;;;;;;19.50;45.10;101991.28;5066121;28;20032;-42
2023/05/29 08:39:50;;;;;;;6.63;1.92;;;;;;;19.47;44.73;101999.53;5076218;28;20028;-42
2023/05/29 08:42:27;;;;;;;6.60;1.77;;;;;;;19.36;43.19;101983.50;5068875;28;20051;-41
2023/05/29 08:44:57;;;;;;;10.90;2.38;;;;;;;19.34;44.28;101996.09;5074592;28;20028;-40
2023/05/29 08:47:26;;;;;;;11.25;2.50;;;;;;;19.30;43.96;101998.16;5070259;28;20077;-40
2023/05/29 08:49:53;;;;;;;2.72;1.60;;;;;;;19.28;44.00;102002.75;5055196;28;20039;-40
2023/05/29 08:52:21;;;;;;;3.47;1.67;;;;;;;19.29;43.82;101992.91;5062545;28;20041;-39
2023/05/29 08:54:47;;;;;;;5.32;1.88;;;;;;;19.33;43.60;101994.38;5052645;28;20039;-41
2023/05/29 08:57:13;;;;;;;6.05;2.50;;;;;;;19.38;43.27;101991.38;5071530;28;20037;-41
2023/05/29 08:59:42;;;;;;;9.75;1.80;;;;;;;19.37;42.71;101990.53;5068450;28;20035;-42
2023/05/29 09:02:08;;;;;;;4.22;1.83;;;;;;;19.36;42.16;101988.81;5061018;28;20046;-42
2023/05/29 09:04:33;;;;;;;5.50;2.05;;;;;;;19.41;42.21;101991.13;5071336;28;20060;-41
2023/05/29 09:06:59;;;;;;;3.72;1.80;;;;;;;19.48;42.36;101989.72;5071994;28;20130;-39
2023/05/29 09:09:29;;;;;;;5.10;2.08;;;;;;;19.54;42.17;101980.38;5066809;28;20032;-41
2023/05/29 09:11:56;;;;;;;4.65;1.90;;;;;;;19.55;42.54;101988.28;5066478;28;20565;-41
2023/05/29 09:14:42;;;;;;;7.43;1.80;;;;;;;19.60;41.77;101991.44;5066343;28;20797;-41
2023/05/29 09:17:08;;;;;;;7.72;1.77;;;;;;;19.64;42.26;101986.72;5054630;28;20032;-39
2023/05/29 09:19:35;;;;;;;9.02;3.38;;;;;;;19.67;42.09;101986.50;5068487;28;20031;-40
2023/05/29 09:22:06;;;;;;;4.47;2.10;;;;;;;19.68;42.13;101998.88;5066144;28;20040;-39
2023/05/29 09:24:39;;;;;;;6.13;1.67;;;;;;;19.70;41.79;101996.94;5071856;28;20040;-39
2023/05/29 09:27:05;;;;;;;5.22;2.08;;;;;;;19.73;41.83;101991.38;5066828;28;20028;-42
2023/05/29 09:29:32;;;;;;;5.78;2.25;;;;;;;19.75;41.55;101994.75;5075747;28;20119;-40
2023/05/29 09:31:58;;;;;;;7.53;2.45;;;;;;;19.73;41.71;101996.72;5059377;28;20046;-39
2023/05/29 09:34:26;;;;;;;5.90;2.25;;;;;;;19.76;41.62;101996.44;5075817;28;20136;-42
2023/05/29 09:36:52;;;;;;;4.18;2.03;;;;;;;19.74;41.70;101997.53;5061615;28;20085;-40
2023/05/29 09:39:18;;;;;;;5.70;2.42;;;;;;;19.77;41.67;101999.97;5059626;28;20720;-41
2023/05/29 09:41:45;;;;;;;4.75;2.50;;;;;;;19.82;41.94;101991.63;5067682;28;20048;-41
2023/05/29 09:44:13;;;;;;;6.70;2.22;;;;;;;19.87;41.97;101994.81;5066584;28;20031;-42
2023/05/29 09:46:41;;;;;;;5.93;2.28;;;;;;;19.93;42.26;101994.31;5065526;28;20057;-40
2023/05/29 09:49:16;;;;;;;6.47;2.75;;;;;;;19.95;42.52;101997.72;5065980;28;20042;-40
2023/05/29 09:51:44;;;;;;;4.72;2.70;;;;;;;19.93;42.68;102007.69;5067860;28;20031;-39
2023/05/29 09:54:16;;;;;;;7.00;2.80;;;;;;;19.97;42.98;102009.16;5069350;28;20043;-39
2023/05/29 09:56:48;;;;;;;8.57;2.63;;;;;;;19.99;43.18;101996.53;5058981;28;20035;-39
2023/05/29 09:59:15;;;;;;;6.90;3.03;;;;;;;20.03;43.08;102002.47;5070527;28;20020;-39
2023/05/29 10:01:42;;;;;;;6.82;2.17;;;;;;;20.09;43.12;101997.50;5053862;28;20036;-40
2023/05/29 10:04:11;;;;;;;7.43;2.50;;;;;;;20.13;43.09;101992.75;5067566;28;20030;-41
2023/05/29 10:06:40;;;;;;;4.13;2.20;;;;;;;20.14;43.12;101998.97;5066367;28;20494;-42
2023/05/29 10:09:10;;;;;;;5.55;2.70;;;;;;;20.11;42.81;102005.41;5070289;28;20028;-41
2023/05/29 10:11:38;;;;;;;5.82;2.28;;;;;;;20.09;42.70;101994.81;5074392;28;20024;-38
2023/05/29 10:14:05;;;;;;;13.25;2.40;;;;;;;20.06;42.66;101992.38;5067986;28;20599;-37
2023/05/29 10:16:36;;;;;;;7.25;4.53;;;;;;;20.07;42.31;101996.75;5074745;28;20040;-40
2023/05/29 10:19:07;;;;;;;4.55;2.00;;;;;;;20.09;42.44;101992.16;5071416;28;20093;-40
2023/05/29 10:21:36;;;;;;;6.13;1.85;;;;;;;20.12;42.24;102003.56;5071069;28;20032;-42
2023/05/29 10:24:09;;;;;;;6.25;2.20;;;;;;;20.13;41.56;101991.91;5075095;28;20056;-40
2023/05/29 10:26:39;;;;;;;9.32;2.80;;;;;;;20.19;41.30;101999.47;5070706;28;20398;-40
2023/05/29 10:29:26;;;;;;;7.38;2.20;;;;;;;20.19;41.34;101994.97;5073501;28;20036;-38
2023/05/29 10:32:10;;;;;;;6.22;1.90;;;;;;;20.14;41.38;101991.78;5071772;28;20024;-40
2023/05/29 10:34:56;;;;;;;5.60;2.20;;;;;;;20.21;41.18;101994.81;5071715;28;20039;-40
2023/05/29 10:37:44;;;;;;;5.32;1.77;;;;;;;20.20;41.03;101993.97;5070829;28;20042;-40
2023/05/29 10:40:14;;;;;;;4.28;2.15;;;;;;;20.23;41.35;101983.06;5075236;28;20074;-43
2023/05/29 10:42:48;;;;;;;38.47;18.63;;;;;;;20.29;40.96;101979.03;5078200;28;20032;-43
2023/05/29 10:45:29;;;;;;;5.78;2.40;;;;;;;20.36;40.39;101966.03;5074066;28;20988;-42
2023/05/29 10:47:55;;;;;;;6.50;2.10;;;;;;;20.44;40.83;101973.44;5073771;28;20043;-41
2023/05/29 10:50:46;;;;;;;5.25;1.70;;;;;;;20.48;39.90;101970.38;5066349;28;20036;-39
2023/05/29 10:53:23;;;;;;;4.82;2.33;;;;;;;20.46;40.38;101977.69;5073637;28;20110;-41
2023/05/29 10:55:50;;;;;;;5.22;1.92;;;;;;;20.47;40.34;101973.19;5078371;28;20031;-41
2023/05/29 10:58:19;;;;;;;7.55;2.20;;;;;;;20.60;40.16;101979.25;5078472;28;20402;-40
2023/05/29 11:00:46;;;;;;;5.28;1.98;;;;;;;20.58;40.39;101972.31;5073377;28;20036;-38
2023/05/29 11:03:18;;;;;;;5.55;2.10;;;;;;;20.54;40.14;101966.38;5071606;28;20036;-41
2023/05/29 11:06:00;;;;;;;3.90;1.73;;;;;;;20.47;39.48;101970.53;5059048;28;20063;-41
2023/05/29 11:08:41;;;;;;;6.65;3.13;;;;;;;20.47;39.59;101958.00;5060335;28;21899;-41
2023/05/29 11:11:06;;;;;;;3.13;1.75;;;;;;;20.55;39.89;101963.59;5072563;28;20051;-41
2023/05/29 11:13:36;;;;;;;6.85;1.88;;;;;;;20.66;39.64;101965.38;5075472;28;20436;-41
2023/05/29 11:16:25;;;;;;;5.25;2.13;;;;;;;20.76;38.98;101952.13;5075287;28;20044;-43
2023/05/29 11:18:51;;;;;;;4.32;1.90;;;;;;;20.69;39.09;101962.44;5074976;28;20036;-40
2023/05/29 11:21:36;;;;;;;6.75;1.98;;;;;;;20.72;37.75;101966.72;5074903;28;20494;-40
2023/05/29 11:24:03;;;;;;;4.82;2.42;;;;;;;20.75;38.47;101965.59;5076320;28;20032;-42
2023/05/29 11:26:30;;;;;;;5.20;1.85;;;;;;;20.77;38.25;101969.88;5071192;28;20028;-41